sensor_id;sensor_type;location;lat;lon;timestamp;temperature;humidity
59660;DHT22;45534;52.690;6.268;2023-10-31T00:01:49;10.70;99.90
59660;DHT22;45534;52.690;6.268;2023-10-31T00:04:15;10.60;99.90
59660;DHT22;45534;52.690;6.268;2023-10-31T00:06:41;10.60;99.90
59660;DHT22;45534;52.690;6.268;2023-10-31T00:09:07;10.60;99.90
59660;DHT22;45534;52.690;6.268;2023-10-31T00:11:33;10.50;99.90
59660;DHT22;45534;52.690;6.268;2023-10-31T00:13:59;10.50;99.90
59660;DHT22;45534;52.690;6.268;2023-10-31T00:16:24;10.50;99.90
59660;DHT22;45534;52.690;6.268;2023-10-31T00:18:50;10.40;99.90
59660;DHT22;45534;52.690;6.268;2023-10-31T00:21:16;10.40;99.90
59660;DHT22;45534;52.690;6.268;2023-10-31T00:23:45;10.40;99.90
59660;DHT22;45534;52.690;6.268;2023-10-31T00:26:11;10.40;99.90
59660;DHT22;45534;52.690;6.268;2023-10-31T00:28:37;10.40;99.90
59660;DHT22;45534;52.690;6.268;2023-10-31T00:31:03;10.40;99.90
59660;DHT22;45534;52.690;6.268;2023-10-31T00:33:29;10.30;99.90
59660;DHT22;45534;52.690;6.268;2023-10-31T00:35:55;10.30;99.90
59660;DHT22;45534;52.690;6.268;2023-10-31T00:38:21;10.30;99.90
59660;DHT22;45534;52.690;6.268;2023-10-31T00:40:47;10.30;99.90
59660;DHT22;45534;52.690;6.268;2023-10-31T00:43:12;10.30;99.90
59660;DHT22;45534;52.690;6.268;2023-10-31T00:45:38;10.30;99.90
59660;DHT22;45534;52.690;6.268;2023-10-31T00:48:04;10.20;99.90
59660;DHT22;45534;52.690;6.268;2023-10-31T00:50:30;10.10;99.90
59660;DHT22;45534;52.690;6.268;2023-10-31T00:52:55;10.00;99.90
59660;DHT22;45534;52.690;6.268;2023-10-31T00:55:21;9.90;99.90
59660;DHT22;45534;52.690;6.268;2023-10-31T00:57:47;9.80;99.90
59660;DHT22;45534;52.690;6.268;2023-10-31T01:00:12;9.70;99.90
59660;DHT22;45534;52.690;6.268;2023-10-31T01:02:38;9.70;99.90
59660;DHT22;45534;52.690;6.268;2023-10-31T01:05:04;9.70;99.90
59660;DHT22;45534;52.690;6.268;2023-10-31T01:07:30;9.70;99.90
59660;DHT22;45534;52.690;6.268;2023-10-31T01:09:55;9.70;99.90
59660;DHT22;45534;52.690;6.268;2023-10-31T01:12:21;9.70;99.90
59660;DHT22;45534;52.690;6.268;2023-10-31T01:14:47;9.70;99.90
59660;DHT22;45534;52.690;6.268;2023-10-31T01:17:13;9.70;99.90
59660;DHT22;45534;52.690;6.268;2023-10-31T01:19:38;9.70;99.90
59660;DHT22;45534;52.690;6.268;2023-10-31T01:22:04;9.70;99.90
59660;DHT22;45534;52.690;6.268;2023-10-31T01:24:30;9.80;99.90
59660;DHT22;45534;52.690;6.268;2023-10-31T01:26:55;9.80;99.90
59660;DHT22;45534;52.690;6.268;2023-10-31T01:29:21;9.70;99.90
59660;DHT22;45534;52.690;6.268;2023-10-31T01:31:47;9.70;99.90
59660;DHT22;45534;52.690;6.268;2023-10-31T01:34:12;9.70;99.90
59660;DHT22;45534;52.690;6.268;2023-10-31T01:36:38;9.70;99.90
59660;DHT22;45534;52.690;6.268;2023-10-31T01:39:04;9.70;99.90
59660;DHT22;45534;52.690;6.268;2023-10-31T01:41:29;9.60;99.90
59660;DHT22;45534;52.690;6.268;2023-10-31T01:43:55;9.60;99.90
59660;DHT22;45534;52.690;6.268;2023-10-31T01:46:20;9.60;99.90
59660;DHT22;45534;52.690;6.268;2023-10-31T01:48:46;9.60;99.90
59660;DHT22;45534;52.690;6.268;2023-10-31T01:51:12;9.60;99.90
59660;DHT22;45534;52.690;6.268;2023-10-31T01:53:38;9.50;99.90
59660;DHT22;45534;52.690;6.268;2023-10-31T01:56:05;9.50;99.90
59660;DHT22;45534;52.690;6.268;2023-10-31T01:58:36;9.50;99.90
59660;DHT22;45534;52.690;6.268;2023-10-31T02:01:03;9.60;99.90
59660;DHT22;45534;52.690;6.268;2023-10-31T02:03:30;9.60;99.90
59660;DHT22;45534;52.690;6.268;2023-10-31T02:05:56;9.60;99.90
59660;DHT22;45534;52.690;6.268;2023-10-31T02:08:22;9.60;99.90
59660;DHT22;45534;52.690;6.268;2023-10-31T02:10:48;9.60;99.90
59660;DHT22;45534;52.690;6.268;2023-10-31T02:13:17;9.60;99.90
59660;DHT22;45534;52.690;6.268;2023-10-31T02:15:43;9.60;99.90
59660;DHT22;45534;52.690;6.268;2023-10-31T02:18:09;9.60;99.90
59660;DHT22;45534;52.690;6.268;2023-10-31T02:20:36;9.70;99.90
59660;DHT22;45534;52.690;6.268;2023-10-31T02:23:02;9.70;99.90
59660;DHT22;45534;52.690;6.268;2023-10-31T02:25:28;9.70;99.90
59660;DHT22;45534;52.690;6.268;2023-10-31T02:27:54;9.80;99.90
59660;DHT22;45534;52.690;6.268;2023-10-31T02:30:19;9.80;99.90
59660;DHT22;45534;52.690;6.268;2023-10-31T02:32:45;9.80;99.90
59660;DHT22;45534;52.690;6.268;2023-10-31T02:35:11;9.80;99.90
59660;DHT22;45534;52.690;6.268;2023-10-31T02:37:37;9.80;99.90
59660;DHT22;45534;52.690;6.268;2023-10-31T02:40:03;9.80;99.90
59660;DHT22;45534;52.690;6.268;2023-10-31T02:42:29;9.90;99.90
59660;DHT22;45534;52.690;6.268;2023-10-31T02:44:55;9.90;99.90
59660;DHT22;45534;52.690;6.268;2023-10-31T02:47:20;9.90;99.90
59660;DHT22;45534;52.690;6.268;2023-10-31T02:49:46;9.90;99.90
59660;DHT22;45534;52.690;6.268;2023-10-31T02:52:12;10.00;99.90
59660;DHT22;45534;52.690;6.268;2023-10-31T02:54:37;10.00;99.90
59660;DHT22;45534;52.690;6.268;2023-10-31T02:57:03;10.00;99.90
59660;DHT22;45534;52.690;6.268;2023-10-31T02:59:29;10.00;99.90
59660;DHT22;45534;52.690;6.268;2023-10-31T03:01:56;10.00;99.90
59660;DHT22;45534;52.690;6.268;2023-10-31T03:04:22;10.00;99.90
59660;DHT22;45534;52.690;6.268;2023-10-31T03:06:48;10.00;99.90
59660;DHT22;45534;52.690;6.268;2023-10-31T03:09:14;10.00;99.90
59660;DHT22;45534;52.690;6.268;2023-10-31T03:11:39;10.00;99.90
59660;DHT22;45534;52.690;6.268;2023-10-31T03:14:05;10.00;99.90
59660;DHT22;45534;52.690;6.268;2023-10-31T03:16:31;10.00;99.90
59660;DHT22;45534;52.690;6.268;2023-10-31T03:18:58;10.00;99.90
59660;DHT22;45534;52.690;6.268;2023-10-31T03:21:23;10.00;99.90
59660;DHT22;45534;52.690;6.268;2023-10-31T03:23:50;10.00;99.90
59660;DHT22;45534;52.690;6.268;2023-10-31T03:26:16;10.00;99.90
59660;DHT22;45534;52.690;6.268;2023-10-31T03:28:43;10.00;99.90
59660;DHT22;45534;52.690;6.268;2023-10-31T03:31:10;10.00;99.90
59660;DHT22;45534;52.690;6.268;2023-10-31T03:33:36;10.00;99.90
59660;DHT22;45534;52.690;6.268;2023-10-31T03:36:02;10.00;99.90
59660;DHT22;45534;52.690;6.268;2023-10-31T03:38:28;10.00;99.90
59660;DHT22;45534;52.690;6.268;2023-10-31T03:40:54;10.00;99.90
59660;DHT22;45534;52.690;6.268;2023-10-31T03:43:20;9.90;99.90
59660;DHT22;45534;52.690;6.268;2023-10-31T03:45:46;9.90;99.90
59660;DHT22;45534;52.690;6.268;2023-10-31T03:48:18;9.90;99.90
59660;DHT22;45534;52.690;6.268;2023-10-31T03:50:44;9.90;99.90
59660;DHT22;45534;52.690;6.268;2023-10-31T03:53:09;10.00;99.90
59660;DHT22;45534;52.690;6.268;2023-10-31T03:55:35;10.00;99.90
59660;DHT22;45534;52.690;6.268;2023-10-31T03:58:01;9.90;99.90
59660;DHT22;45534;52.690;6.268;2023-10-31T04:00:26;9.90;99.90
59660;DHT22;45534;52.690;6.268;2023-10-31T04:02:52;9.90;99.90
59660;DHT22;45534;52.690;6.268;2023-10-31T04:05:18;9.90;99.90
59660;DHT22;45534;52.690;6.268;2023-10-31T04:07:46;9.90;99.90
59660;DHT22;45534;52.690;6.268;2023-10-31T04:10:12;9.90;99.90
59660;DHT22;45534;52.690;6.268;2023-10-31T04:12:38;9.90;99.90
59660;DHT22;45534;52.690;6.268;2023-10-31T04:15:04;9.90;99.90
59660;DHT22;45534;52.690;6.268;2023-10-31T04:17:30;9.90;99.90
59660;DHT22;45534;52.690;6.268;2023-10-31T04:19:56;9.90;99.90
59660;DHT22;45534;52.690;6.268;2023-10-31T04:22:21;9.90;99.90
59660;DHT22;45534;52.690;6.268;2023-10-31T04:24:47;9.90;99.90
59660;DHT22;45534;52.690;6.268;2023-10-31T04:27:13;9.90;99.90
59660;DHT22;45534;52.690;6.268;2023-10-31T04:29:39;9.90;99.90
59660;DHT22;45534;52.690;6.268;2023-10-31T04:32:05;9.90;99.90
59660;DHT22;45534;52.690;6.268;2023-10-31T04:34:30;9.90;99.90
59660;DHT22;45534;52.690;6.268;2023-10-31T04:36:56;9.90;99.90
59660;DHT22;45534;52.690;6.268;2023-10-31T04:39:22;9.90;99.90
59660;DHT22;45534;52.690;6.268;2023-10-31T04:41:47;9.90;99.90
59660;DHT22;45534;52.690;6.268;2023-10-31T04:44:13;9.90;99.90
59660;DHT22;45534;52.690;6.268;2023-10-31T04:46:39;9.90;99.90
59660;DHT22;45534;52.690;6.268;2023-10-31T04:49:05;9.90;99.90
59660;DHT22;45534;52.690;6.268;2023-10-31T04:51:37;9.90;99.90
59660;DHT22;45534;52.690;6.268;2023-10-31T04:54:06;9.90;99.90
59660;DHT22;45534;52.690;6.268;2023-10-31T04:56:32;9.90;99.90
59660;DHT22;45534;52.690;6.268;2023-10-31T04:58:58;9.90;99.90
59660;DHT22;45534;52.690;6.268;2023-10-31T05:01:24;9.90;99.90
59660;DHT22;45534;52.690;6.268;2023-10-31T05:03:49;9.90;99.90
59660;DHT22;45534;52.690;6.268;2023-10-31T05:06:19;9.90;99.90
59660;DHT22;45534;52.690;6.268;2023-10-31T05:08:46;9.90;99.90
59660;DHT22;45534;52.690;6.268;2023-10-31T05:11:11;9.90;99.90
59660;DHT22;45534;52.690;6.268;2023-10-31T05:13:38;9.90;99.90
59660;DHT22;45534;52.690;6.268;2023-10-31T05:16:04;9.90;99.90
59660;DHT22;45534;52.690;6.268;2023-10-31T05:18:30;9.90;99.90
59660;DHT22;45534;52.690;6.268;2023-10-31T05:20:55;9.90;99.90
59660;DHT22;45534;52.690;6.268;2023-10-31T05:23:21;9.90;99.90
59660;DHT22;45534;52.690;6.268;2023-10-31T05:25:47;9.90;99.90
59660;DHT22;45534;52.690;6.268;2023-10-31T05:28:12;9.90;99.90
59660;DHT22;45534;52.690;6.268;2023-10-31T05:30:38;9.90;99.90
59660;DHT22;45534;52.690;6.268;2023-10-31T05:33:04;9.90;99.90
59660;DHT22;45534;52.690;6.268;2023-10-31T05:35:29;10.00;99.90
59660;DHT22;45534;52.690;6.268;2023-10-31T05:37:55;10.00;99.90
59660;DHT22;45534;52.690;6.268;2023-10-31T05:40:21;10.00;99.90
59660;DHT22;45534;52.690;6.268;2023-10-31T05:42:50;10.00;99.90
59660;DHT22;45534;52.690;6.268;2023-10-31T05:45:19;9.90;99.90
59660;DHT22;45534;52.690;6.268;2023-10-31T05:47:44;9.90;99.90
59660;DHT22;45534;52.690;6.268;2023-10-31T05:50:10;9.90;99.90
59660;DHT22;45534;52.690;6.268;2023-10-31T05:52:36;9.90;99.90
59660;DHT22;45534;52.690;6.268;2023-10-31T05:55:02;9.80;99.90
59660;DHT22;45534;52.690;6.268;2023-10-31T05:57:28;9.80;99.90
59660;DHT22;45534;52.690;6.268;2023-10-31T05:59:53;9.80;99.90
59660;DHT22;45534;52.690;6.268;2023-10-31T06:02:19;9.80;99.90
59660;DHT22;45534;52.690;6.268;2023-10-31T06:04:45;9.80;99.90
59660;DHT22;45534;52.690;6.268;2023-10-31T06:07:11;9.80;99.90
59660;DHT22;45534;52.690;6.268;2023-10-31T06:09:37;9.80;99.90
59660;DHT22;45534;52.690;6.268;2023-10-31T06:12:03;9.80;99.90
59660;DHT22;45534;52.690;6.268;2023-10-31T06:14:29;9.80;99.90
59660;DHT22;45534;52.690;6.268;2023-10-31T06:16:54;9.80;99.90
59660;DHT22;45534;52.690;6.268;2023-10-31T06:19:22;9.80;99.90
59660;DHT22;45534;52.690;6.268;2023-10-31T06:21:47;9.80;99.90
59660;DHT22;45534;52.690;6.268;2023-10-31T06:24:14;9.80;99.90
59660;DHT22;45534;52.690;6.268;2023-10-31T06:26:39;9.80;99.90
59660;DHT22;45534;52.690;6.268;2023-10-31T06:29:05;9.80;99.90
59660;DHT22;45534;52.690;6.268;2023-10-31T06:31:31;9.80;99.90
59660;DHT22;45534;52.690;6.268;2023-10-31T06:33:56;9.80;99.90
59660;DHT22;45534;52.690;6.268;2023-10-31T06:36:22;9.90;99.90
59660;DHT22;45534;52.690;6.268;2023-10-31T06:38:48;9.90;99.90
59660;DHT22;45534;52.690;6.268;2023-10-31T06:41:14;9.90;99.90
59660;DHT22;45534;52.690;6.268;2023-10-31T06:43:39;9.90;99.90
59660;DHT22;45534;52.690;6.268;2023-10-31T06:46:05;9.90;99.90
59660;DHT22;45534;52.690;6.268;2023-10-31T06:48:32;9.90;99.90
59660;DHT22;45534;52.690;6.268;2023-10-31T06:50:58;10.00;99.90
59660;DHT22;45534;52.690;6.268;2023-10-31T06:53:23;10.00;99.90
59660;DHT22;45534;52.690;6.268;2023-10-31T06:55:49;10.00;99.90
59660;DHT22;45534;52.690;6.268;2023-10-31T06:58:15;10.00;99.90
59660;DHT22;45534;52.690;6.268;2023-10-31T07:00:40;10.00;99.90
59660;DHT22;45534;52.690;6.268;2023-10-31T07:03:06;10.00;99.90
59660;DHT22;45534;52.690;6.268;2023-10-31T07:05:37;10.10;99.90
59660;DHT22;45534;52.690;6.268;2023-10-31T07:08:03;10.10;99.90
59660;DHT22;45534;52.690;6.268;2023-10-31T07:10:30;10.10;99.90
59660;DHT22;45534;52.690;6.268;2023-10-31T07:12:56;10.10;99.90
59660;DHT22;45534;52.690;6.268;2023-10-31T07:15:24;10.10;99.90
59660;DHT22;45534;52.690;6.268;2023-10-31T07:17:50;10.10;99.90
59660;DHT22;45534;52.690;6.268;2023-10-31T07:20:15;10.20;99.90
59660;DHT22;45534;52.690;6.268;2023-10-31T07:22:41;10.20;99.90
59660;DHT22;45534;52.690;6.268;2023-10-31T07:25:07;10.20;99.90
59660;DHT22;45534;52.690;6.268;2023-10-31T07:27:33;10.20;99.90
59660;DHT22;45534;52.690;6.268;2023-10-31T07:29:59;10.20;99.90
59660;DHT22;45534;52.690;6.268;2023-10-31T07:32:25;10.20;99.90
59660;DHT22;45534;52.690;6.268;2023-10-31T07:34:51;10.30;99.90
59660;DHT22;45534;52.690;6.268;2023-10-31T07:37:17;10.30;99.90
59660;DHT22;45534;52.690;6.268;2023-10-31T07:39:43;10.30;99.90
59660;DHT22;45534;52.690;6.268;2023-10-31T07:42:08;10.40;99.90
59660;DHT22;45534;52.690;6.268;2023-10-31T07:44:34;10.40;99.90
59660;DHT22;45534;52.690;6.268;2023-10-31T07:47:00;10.40;99.90
59660;DHT22;45534;52.690;6.268;2023-10-31T07:49:25;10.40;99.90
59660;DHT22;45534;52.690;6.268;2023-10-31T07:51:51;10.50;99.90
59660;DHT22;45534;52.690;6.268;2023-10-31T07:54:17;10.50;99.90
59660;DHT22;45534;52.690;6.268;2023-10-31T07:56:43;10.50;99.90
59660;DHT22;45534;52.690;6.268;2023-10-31T07:59:09;10.50;99.90
59660;DHT22;45534;52.690;6.268;2023-10-31T08:01:35;10.50;99.90
59660;DHT22;45534;52.690;6.268;2023-10-31T08:04:01;10.60;99.90
59660;DHT22;45534;52.690;6.268;2023-10-31T08:06:27;10.60;99.90
59660;DHT22;45534;52.690;6.268;2023-10-31T08:08:52;10.60;99.90
59660;DHT22;45534;52.690;6.268;2023-10-31T08:11:18;10.70;99.90
59660;DHT22;45534;52.690;6.268;2023-10-31T08:13:44;10.70;99.90
59660;DHT22;45534;52.690;6.268;2023-10-31T08:16:10;10.70;99.90
59660;DHT22;45534;52.690;6.268;2023-10-31T08:18:36;10.70;99.90
59660;DHT22;45534;52.690;6.268;2023-10-31T08:21:03;10.80;99.90
59660;DHT22;45534;52.690;6.268;2023-10-31T08:23:29;10.80;99.90
59660;DHT22;45534;52.690;6.268;2023-10-31T08:25:55;10.80;99.90
59660;DHT22;45534;52.690;6.268;2023-10-31T08:28:21;10.90;99.90
59660;DHT22;45534;52.690;6.268;2023-10-31T08:30:47;10.90;99.90
59660;DHT22;45534;52.690;6.268;2023-10-31T08:33:13;10.90;99.90
59660;DHT22;45534;52.690;6.268;2023-10-31T08:35:39;11.00;99.90
59660;DHT22;45534;52.690;6.268;2023-10-31T08:38:05;11.00;99.90
59660;DHT22;45534;52.690;6.268;2023-10-31T08:40:31;11.10;99.90
59660;DHT22;45534;52.690;6.268;2023-10-31T08:42:56;11.00;99.90
59660;DHT22;45534;52.690;6.268;2023-10-31T08:45:22;11.00;99.90
59660;DHT22;45534;52.690;6.268;2023-10-31T08:47:48;11.10;99.90
59660;DHT22;45534;52.690;6.268;2023-10-31T08:50:14;11.10;99.90
59660;DHT22;45534;52.690;6.268;2023-10-31T08:52:40;11.00;99.90
59660;DHT22;45534;52.690;6.268;2023-10-31T08:55:06;11.00;99.90
59660;DHT22;45534;52.690;6.268;2023-10-31T08:57:32;11.00;99.90
59660;DHT22;45534;52.690;6.268;2023-10-31T08:59:59;11.10;99.90
59660;DHT22;45534;52.690;6.268;2023-10-31T09:02:25;11.10;99.90
59660;DHT22;45534;52.690;6.268;2023-10-31T09:04:51;11.20;99.90
59660;DHT22;45534;52.690;6.268;2023-10-31T09:07:16;11.30;99.90
59660;DHT22;45534;52.690;6.268;2023-10-31T09:09:42;11.30;99.90
59660;DHT22;45534;52.690;6.268;2023-10-31T09:12:08;11.40;99.90
59660;DHT22;45534;52.690;6.268;2023-10-31T09:14:34;11.40;99.90
59660;DHT22;45534;52.690;6.268;2023-10-31T09:17:01;11.50;99.90
59660;DHT22;45534;52.690;6.268;2023-10-31T09:19:27;11.50;99.90
59660;DHT22;45534;52.690;6.268;2023-10-31T09:21:52;11.50;99.90
59660;DHT22;45534;52.690;6.268;2023-10-31T09:24:18;11.50;99.90
59660;DHT22;45534;52.690;6.268;2023-10-31T09:26:44;11.60;99.90
59660;DHT22;45534;52.690;6.268;2023-10-31T09:29:12;11.60;99.90
59660;DHT22;45534;52.690;6.268;2023-10-31T09:31:38;11.60;99.90
59660;DHT22;45534;52.690;6.268;2023-10-31T09:34:04;11.60;99.90
59660;DHT22;45534;52.690;6.268;2023-10-31T09:36:33;11.70;99.90
59660;DHT22;45534;52.690;6.268;2023-10-31T09:39:02;11.70;99.90
59660;DHT22;45534;52.690;6.268;2023-10-31T09:41:28;11.80;99.90
59660;DHT22;45534;52.690;6.268;2023-10-31T09:43:54;11.80;99.90
59660;DHT22;45534;52.690;6.268;2023-10-31T09:46:21;11.80;99.90
59660;DHT22;45534;52.690;6.268;2023-10-31T09:48:48;11.90;99.90
59660;DHT22;45534;52.690;6.268;2023-10-31T09:51:14;11.90;99.90
59660;DHT22;45534;52.690;6.268;2023-10-31T09:53:41;11.90;99.90
59660;DHT22;45534;52.690;6.268;2023-10-31T09:56:10;11.90;99.90
59660;DHT22;45534;52.690;6.268;2023-10-31T09:58:36;11.90;99.90
59660;DHT22;45534;52.690;6.268;2023-10-31T10:01:02;11.90;99.90
59660;DHT22;45534;52.690;6.268;2023-10-31T10:03:28;12.00;99.90
59660;DHT22;45534;52.690;6.268;2023-10-31T10:05:54;12.00;99.90
59660;DHT22;45534;52.690;6.268;2023-10-31T10:08:21;12.10;99.90
59660;DHT22;45534;52.690;6.268;2023-10-31T10:10:48;12.10;99.90
59660;DHT22;45534;52.690;6.268;2023-10-31T10:13:17;12.10;99.90
59660;DHT22;45534;52.690;6.268;2023-10-31T10:15:52;12.20;99.90
59660;DHT22;45534;52.690;6.268;2023-10-31T10:18:29;12.30;99.90
59660;DHT22;45534;52.690;6.268;2023-10-31T10:20:59;12.50;99.90
59660;DHT22;45534;52.690;6.268;2023-10-31T10:23:26;12.60;99.90
59660;DHT22;45534;52.690;6.268;2023-10-31T10:25:54;12.70;99.90
59660;DHT22;45534;52.690;6.268;2023-10-31T10:28:20;12.80;99.90
59660;DHT22;45534;52.690;6.268;2023-10-31T10:30:49;12.80;99.90
59660;DHT22;45534;52.690;6.268;2023-10-31T10:33:15;12.80;99.90
59660;DHT22;45534;52.690;6.268;2023-10-31T10:35:41;12.80;99.90
59660;DHT22;45534;52.690;6.268;2023-10-31T10:38:12;12.80;99.90
59660;DHT22;45534;52.690;6.268;2023-10-31T10:40:45;12.80;99.90
59660;DHT22;45534;52.690;6.268;2023-10-31T10:43:24;12.70;99.90
59660;DHT22;45534;52.690;6.268;2023-10-31T10:45:54;12.60;99.90
59660;DHT22;45534;52.690;6.268;2023-10-31T10:48:27;12.50;99.90
59660;DHT22;45534;52.690;6.268;2023-10-31T10:51:15;12.40;99.90
59660;DHT22;45534;52.690;6.268;2023-10-31T10:53:49;12.30;99.90
59660;DHT22;45534;52.690;6.268;2023-10-31T10:56:26;12.30;99.90
59660;DHT22;45534;52.690;6.268;2023-10-31T10:59:03;12.20;99.90
59660;DHT22;45534;52.690;6.268;2023-10-31T11:01:33;12.20;99.90
59660;DHT22;45534;52.690;6.268;2023-10-31T11:04:01;12.30;99.90
59660;DHT22;45534;52.690;6.268;2023-10-31T11:06:29;12.50;99.90
59660;DHT22;45534;52.690;6.268;2023-10-31T11:08:55;12.60;99.90
59660;DHT22;45534;52.690;6.268;2023-10-31T11:11:21;12.70;99.90
59660;DHT22;45534;52.690;6.268;2023-10-31T11:13:50;12.70;99.90
59660;DHT22;45534;52.690;6.268;2023-10-31T11:16:48;12.70;99.90
59660;DHT22;45534;52.690;6.268;2023-10-31T11:19:15;12.60;99.90
59660;DHT22;45534;52.690;6.268;2023-10-31T11:22:05;12.50;99.90
59660;DHT22;45534;52.690;6.268;2023-10-31T11:24:33;12.40;99.90
59660;DHT22;45534;52.690;6.268;2023-10-31T11:27:03;12.30;99.90
59660;DHT22;45534;52.690;6.268;2023-10-31T11:29:33;12.30;99.90
59660;DHT22;45534;52.690;6.268;2023-10-31T11:32:00;12.30;99.90
59660;DHT22;45534;52.690;6.268;2023-10-31T11:34:26;12.40;99.90
59660;DHT22;45534;52.690;6.268;2023-10-31T11:36:53;12.60;99.90
59660;DHT22;45534;52.690;6.268;2023-10-31T11:39:20;13.00;99.90
59660;DHT22;45534;52.690;6.268;2023-10-31T11:41:55;13.30;99.90
59660;DHT22;45534;52.690;6.268;2023-10-31T11:44:28;13.40;99.90
59660;DHT22;45534;52.690;6.268;2023-10-31T11:46:58;13.30;99.90
59660;DHT22;45534;52.690;6.268;2023-10-31T11:49:46;13.20;99.90
59660;DHT22;45534;52.690;6.268;2023-10-31T11:52:16;13.10;99.90
59660;DHT22;45534;52.690;6.268;2023-10-31T11:54:42;13.20;99.90
59660;DHT22;45534;52.690;6.268;2023-10-31T11:57:08;13.40;99.90
59660;DHT22;45534;52.690;6.268;2023-10-31T11:59:40;13.60;99.90
59660;DHT22;45534;52.690;6.268;2023-10-31T12:02:15;13.90;99.90
59660;DHT22;45534;52.690;6.268;2023-10-31T12:04:41;14.40;99.90
59660;DHT22;45534;52.690;6.268;2023-10-31T12:07:08;14.80;99.90
59660;DHT22;45534;52.690;6.268;2023-10-31T12:09:45;15.10;99.90
59660;DHT22;45534;52.690;6.268;2023-10-31T12:12:11;15.50;99.90
59660;DHT22;45534;52.690;6.268;2023-10-31T12:14:37;15.80;99.90
59660;DHT22;45534;52.690;6.268;2023-10-31T12:17:07;16.10;99.90
59660;DHT22;45534;52.690;6.268;2023-10-31T12:19:35;16.40;99.90
59660;DHT22;45534;52.690;6.268;2023-10-31T12:22:01;16.70;99.90
59660;DHT22;45534;52.690;6.268;2023-10-31T12:24:28;17.00;99.90
59660;DHT22;45534;52.690;6.268;2023-10-31T12:26:54;17.00;99.90
59660;DHT22;45534;52.690;6.268;2023-10-31T12:29:20;16.50;99.90
59660;DHT22;45534;52.690;6.268;2023-10-31T12:31:51;16.20;99.90
59660;DHT22;45534;52.690;6.268;2023-10-31T12:34:21;16.10;99.90
59660;DHT22;45534;52.690;6.268;2023-10-31T12:36:49;16.10;99.90
59660;DHT22;45534;52.690;6.268;2023-10-31T12:39:17;15.70;99.90
59660;DHT22;45534;52.690;6.268;2023-10-31T12:41:43;15.20;99.90
59660;DHT22;45534;52.690;6.268;2023-10-31T12:44:09;14.70;99.90
59660;DHT22;45534;52.690;6.268;2023-10-31T12:46:39;14.30;99.90
59660;DHT22;45534;52.690;6.268;2023-10-31T12:49:20;14.00;99.90
59660;DHT22;45534;52.690;6.268;2023-10-31T12:52:02;13.80;99.90
59660;DHT22;45534;52.690;6.268;2023-10-31T12:54:33;13.50;99.90
59660;DHT22;45534;52.690;6.268;2023-10-31T12:57:04;13.30;99.90
59660;DHT22;45534;52.690;6.268;2023-10-31T12:59:31;13.30;99.90
59660;DHT22;45534;52.690;6.268;2023-10-31T13:01:57;13.20;99.90
59660;DHT22;45534;52.690;6.268;2023-10-31T13:04:30;13.10;99.90
59660;DHT22;45534;52.690;6.268;2023-10-31T13:07:03;13.20;99.90
59660;DHT22;45534;52.690;6.268;2023-10-31T13:09:36;13.70;99.90
59660;DHT22;45534;52.690;6.268;2023-10-31T13:12:05;14.30;99.90
59660;DHT22;45534;52.690;6.268;2023-10-31T13:14:31;14.60;99.90
59660;DHT22;45534;52.690;6.268;2023-10-31T13:16:58;15.00;99.90
59660;DHT22;45534;52.690;6.268;2023-10-31T13:19:24;15.70;99.90
59660;DHT22;45534;52.690;6.268;2023-10-31T13:21:50;15.90;99.90
59660;DHT22;45534;52.690;6.268;2023-10-31T13:24:16;16.10;99.90
59660;DHT22;45534;52.690;6.268;2023-10-31T13:26:42;16.10;99.90
59660;DHT22;45534;52.690;6.268;2023-10-31T13:29:10;16.30;99.90
59660;DHT22;45534;52.690;6.268;2023-10-31T13:31:37;16.80;99.90
59660;DHT22;45534;52.690;6.268;2023-10-31T13:34:03;17.10;99.90
59660;DHT22;45534;52.690;6.268;2023-10-31T13:36:29;17.10;99.90
59660;DHT22;45534;52.690;6.268;2023-10-31T13:38:54;16.80;99.90
59660;DHT22;45534;52.690;6.268;2023-10-31T13:41:20;16.40;99.90
59660;DHT22;45534;52.690;6.268;2023-10-31T13:43:46;15.90;99.90
59660;DHT22;45534;52.690;6.268;2023-10-31T13:46:16;15.60;99.90
59660;DHT22;45534;52.690;6.268;2023-10-31T13:48:42;15.80;99.90
59660;DHT22;45534;52.690;6.268;2023-10-31T13:51:08;16.40;99.90
59660;DHT22;45534;52.690;6.268;2023-10-31T13:53:33;17.10;99.90
59660;DHT22;45534;52.690;6.268;2023-10-31T13:55:59;17.70;99.90
59660;DHT22;45534;52.690;6.268;2023-10-31T13:58:24;17.40;99.90
59660;DHT22;45534;52.690;6.268;2023-10-31T14:00:50;17.40;99.90
59660;DHT22;45534;52.690;6.268;2023-10-31T14:03:16;17.20;99.90
59660;DHT22;45534;52.690;6.268;2023-10-31T14:05:42;16.60;99.90
59660;DHT22;45534;52.690;6.268;2023-10-31T14:08:07;16.10;99.90
59660;DHT22;45534;52.690;6.268;2023-10-31T14:10:34;16.00;99.90
59660;DHT22;45534;52.690;6.268;2023-10-31T14:12:59;15.80;99.90
59660;DHT22;45534;52.690;6.268;2023-10-31T14:15:25;15.30;99.90
59660;DHT22;45534;52.690;6.268;2023-10-31T14:17:51;14.80;99.90
59660;DHT22;45534;52.690;6.268;2023-10-31T14:20:17;14.30;99.90
59660;DHT22;45534;52.690;6.268;2023-10-31T14:22:50;13.90;99.90
59660;DHT22;45534;52.690;6.268;2023-10-31T14:25:16;13.60;99.90
59660;DHT22;45534;52.690;6.268;2023-10-31T14:27:43;13.40;99.90
59660;DHT22;45534;52.690;6.268;2023-10-31T14:30:10;13.40;99.90
59660;DHT22;45534;52.690;6.268;2023-10-31T14:32:36;13.30;99.90
59660;DHT22;45534;52.690;6.268;2023-10-31T14:35:01;13.30;99.90
59660;DHT22;45534;52.690;6.268;2023-10-31T14:37:27;13.20;99.90
59660;DHT22;45534;52.690;6.268;2023-10-31T14:39:53;13.20;99.90
59660;DHT22;45534;52.690;6.268;2023-10-31T14:42:19;13.10;99.90
59660;DHT22;45534;52.690;6.268;2023-10-31T14:44:46;13.00;99.90
59660;DHT22;45534;52.690;6.268;2023-10-31T14:47:12;13.00;99.90
59660;DHT22;45534;52.690;6.268;2023-10-31T14:49:37;13.00;99.90
59660;DHT22;45534;52.690;6.268;2023-10-31T14:52:03;12.90;99.90
59660;DHT22;45534;52.690;6.268;2023-10-31T14:54:30;12.90;99.90
59660;DHT22;45534;52.690;6.268;2023-10-31T14:56:57;12.80;99.90
59660;DHT22;45534;52.690;6.268;2023-10-31T14:59:22;12.80;99.90
59660;DHT22;45534;52.690;6.268;2023-10-31T15:01:48;12.80;99.90
59660;DHT22;45534;52.690;6.268;2023-10-31T15:04:14;12.80;99.90
59660;DHT22;45534;52.690;6.268;2023-10-31T15:06:41;12.80;99.90
59660;DHT22;45534;52.690;6.268;2023-10-31T15:09:09;12.80;99.90
59660;DHT22;45534;52.690;6.268;2023-10-31T15:11:35;12.80;99.90
59660;DHT22;45534;52.690;6.268;2023-10-31T15:14:01;12.80;99.90
59660;DHT22;45534;52.690;6.268;2023-10-31T15:16:27;12.70;99.90
59660;DHT22;45534;52.690;6.268;2023-10-31T15:18:53;12.50;99.90
59660;DHT22;45534;52.690;6.268;2023-10-31T15:21:18;12.40;99.90
59660;DHT22;45534;52.690;6.268;2023-10-31T15:23:45;12.20;99.90
59660;DHT22;45534;52.690;6.268;2023-10-31T15:26:10;12.10;99.90
59660;DHT22;45534;52.690;6.268;2023-10-31T15:28:39;12.00;99.90
59660;DHT22;45534;52.690;6.268;2023-10-31T15:31:05;11.90;99.90
59660;DHT22;45534;52.690;6.268;2023-10-31T15:33:31;11.80;99.90